sensor_id;sensor_type;location;lat;lon;timestamp;temperature;humidity
63219;DHT22;49320;52.512;13.448;2023-02-28T00:01:30;6.40;58.50
63219;DHT22;49320;52.512;13.448;2023-02-28T00:03:58;6.40;58.60
63219;DHT22;49320;52.512;13.448;2023-02-28T00:06:25;6.40;58.50
63219;DHT22;49320;52.512;13.448;2023-02-28T00:11:20;6.40;58.10
63219;DHT22;49320;52.512;13.448;2023-02-28T00:13:47;6.40;58.70
63219;DHT22;49320;52.512;13.448;2023-02-28T00:16:17;6.30;58.60
63219;DHT22;49320;52.512;13.448;2023-02-28T00:18:47;6.40;58.70
63219;DHT22;49320;52.512;13.448;2023-02-28T00:21:15;6.70;58.90
63219;DHT22;49320;52.512;13.448;2023-02-28T00:23:43;6.40;58.70
63219;DHT22;49320;52.512;13.448;2023-02-28T00:26:11;6.40;58.70
63219;DHT22;49320;52.512;13.448;2023-02-28T00:28:38;6.40;58.60
63219;DHT22;49320;52.512;13.448;2023-02-28T00:31:05;6.40;58.50
63219;DHT22;49320;52.512;13.448;2023-02-28T00:33:32;6.40;58.50
63219;DHT22;49320;52.512;13.448;2023-02-28T00:36:10;6.50;58.60
63219;DHT22;49320;52.512;13.448;2023-02-28T00:38:38;6.40;58.60
63219;DHT22;49320;52.512;13.448;2023-02-28T00:41:07;6.40;58.60
63219;DHT22;49320;52.512;13.448;2023-02-28T00:43:36;6.40;58.60
63219;DHT22;49320;52.512;13.448;2023-02-28T00:46:04;6.40;58.70
63219;DHT22;49320;52.512;13.448;2023-02-28T00:48:31;6.40;58.20
63219;DHT22;49320;52.512;13.448;2023-02-28T00:50:59;6.40;58.80
63219;DHT22;49320;52.512;13.448;2023-02-28T00:53:26;6.40;58.80
63219;DHT22;49320;52.512;13.448;2023-02-28T00:55:54;6.40;58.80
63219;DHT22;49320;52.512;13.448;2023-02-28T00:58:21;6.40;58.80
63219;DHT22;49320;52.512;13.448;2023-02-28T01:00:47;6.40;58.80
63219;DHT22;49320;52.512;13.448;2023-02-28T01:03:17;6.30;58.70
63219;DHT22;49320;52.512;13.448;2023-02-28T01:05:44;6.40;58.80
63219;DHT22;49320;52.512;13.448;2023-02-28T01:08:13;6.40;58.80
63219;DHT22;49320;52.512;13.448;2023-02-28T01:10:41;6.90;59.00
63219;DHT22;49320;52.512;13.448;2023-02-28T01:13:08;6.40;58.80
63219;DHT22;49320;52.512;13.448;2023-02-28T01:15:36;6.30;58.80
63219;DHT22;49320;52.512;13.448;2023-02-28T01:18:03;6.20;59.00
63219;DHT22;49320;52.512;13.448;2023-02-28T01:20:29;6.30;58.80
63219;DHT22;49320;52.512;13.448;2023-02-28T01:22:57;6.30;58.80
63219;DHT22;49320;52.512;13.448;2023-02-28T01:25:24;6.30;58.90
63219;DHT22;49320;52.512;13.448;2023-02-28T01:27:50;6.30;58.90
63219;DHT22;49320;52.512;13.448;2023-02-28T01:30:17;6.30;58.90
63219;DHT22;49320;52.512;13.448;2023-02-28T01:32:44;6.20;58.90
63219;DHT22;49320;52.512;13.448;2023-02-28T01:35:11;6.20;59.00
63219;DHT22;49320;52.512;13.448;2023-02-28T01:37:38;6.20;59.00
63219;DHT22;49320;52.512;13.448;2023-02-28T01:40:05;6.20;59.10
63219;DHT22;49320;52.512;13.448;2023-02-28T01:42:32;6.20;59.20
63219;DHT22;49320;52.512;13.448;2023-02-28T01:47:44;6.20;58.80
63219;DHT22;49320;52.512;13.448;2023-02-28T01:50:22;6.20;59.20
63219;DHT22;49320;52.512;13.448;2023-02-28T01:52:52;6.10;59.20
63219;DHT22;49320;52.512;13.448;2023-02-28T01:55:24;6.10;59.20
63219;DHT22;49320;52.512;13.448;2023-02-28T01:57:56;6.00;59.30
63219;DHT22;49320;52.512;13.448;2023-02-28T02:00:27;6.00;58.90
63219;DHT22;49320;52.512;13.448;2023-02-28T02:02:59;5.90;59.40
63219;DHT22;49320;52.512;13.448;2023-02-28T02:05:31;5.90;59.50
63219;DHT22;49320;52.512;13.448;2023-02-28T02:08:03;5.90;59.50
63219;DHT22;49320;52.512;13.448;2023-02-28T02:10:46;5.80;59.60
63219;DHT22;49320;52.512;13.448;2023-02-28T02:13:53;5.80;59.70
63219;DHT22;49320;52.512;13.448;2023-02-28T02:26:01;5.50;59.90
63219;DHT22;49320;52.512;13.448;2023-02-28T02:32:04;5.30;60.00
63219;DHT22;49320;52.512;13.448;2023-02-28T02:34:52;5.30;60.00
63219;DHT22;49320;52.512;13.448;2023-02-28T02:43:01;5.10;60.30
63219;DHT22;49320;52.512;13.448;2023-02-28T02:48:05;5.00;60.30
63219;DHT22;49320;52.512;13.448;2023-02-28T02:50:39;5.00;60.70
63219;DHT22;49320;52.512;13.448;2023-02-28T02:53:09;4.90;60.70
63219;DHT22;49320;52.512;13.448;2023-02-28T02:55:42;4.90;61.10
63219;DHT22;49320;52.512;13.448;2023-02-28T02:58:15;4.80;60.70
63219;DHT22;49320;52.512;13.448;2023-02-28T03:00:49;4.80;61.20
63219;DHT22;49320;52.512;13.448;2023-02-28T03:05:57;4.70;60.30
63219;DHT22;49320;52.512;13.448;2023-02-28T03:08:27;4.70;61.20
63219;DHT22;49320;52.512;13.448;2023-02-28T03:11:05;4.60;61.20
63219;DHT22;49320;52.512;13.448;2023-02-28T03:22:40;4.50;61.90
63219;DHT22;49320;52.512;13.448;2023-02-28T03:34:16;4.40;62.00
63219;DHT22;49320;52.512;13.448;2023-02-28T03:36:52;4.40;62.30
63219;DHT22;49320;52.512;13.448;2023-02-28T03:39:31;4.30;62.10
63219;DHT22;49320;52.512;13.448;2023-02-28T03:42:09;4.20;62.20
63219;DHT22;49320;52.512;13.448;2023-02-28T03:44:51;4.20;62.30
63219;DHT22;49320;52.512;13.448;2023-02-28T03:50:33;4.20;62.60
63219;DHT22;49320;52.512;13.448;2023-02-28T03:55:56;4.10;62.70
63219;DHT22;49320;52.512;13.448;2023-02-28T03:58:47;4.00;62.70
63219;DHT22;49320;52.512;13.448;2023-02-28T04:01:26;4.00;62.20
63219;DHT22;49320;52.512;13.448;2023-02-28T04:03:58;4.00;62.90
63219;DHT22;49320;52.512;13.448;2023-02-28T04:06:25;3.90;62.80
63219;DHT22;49320;52.512;13.448;2023-02-28T04:08:53;3.90;62.80
63219;DHT22;49320;52.512;13.448;2023-02-28T04:14:05;3.90;63.20
63219;DHT22;49320;52.512;13.448;2023-02-28T04:16:36;3.80;63.10
63219;DHT22;49320;52.512;13.448;2023-02-28T04:19:07;3.80;63.20
63219;DHT22;49320;52.512;13.448;2023-02-28T04:21:37;3.80;63.30
63219;DHT22;49320;52.512;13.448;2023-02-28T04:24:07;3.70;63.30
63219;DHT22;49320;52.512;13.448;2023-02-28T04:26:42;3.70;63.40
63219;DHT22;49320;52.512;13.448;2023-02-28T04:29:13;3.70;64.20
63219;DHT22;49320;52.512;13.448;2023-02-28T04:31:41;3.70;63.70
63219;DHT22;49320;52.512;13.448;2023-02-28T04:34:08;3.60;63.60
63219;DHT22;49320;52.512;13.448;2023-02-28T04:36:35;3.50;63.70
63219;DHT22;49320;52.512;13.448;2023-02-28T04:39:01;3.60;63.80
63219;DHT22;49320;52.512;13.448;2023-02-28T04:41:28;3.60;63.80
63219;DHT22;49320;52.512;13.448;2023-02-28T04:43:58;3.60;63.90
63219;DHT22;49320;52.512;13.448;2023-02-28T04:46:25;3.60;64.00
63219;DHT22;49320;52.512;13.448;2023-02-28T04:48:52;3.50;63.40
63219;DHT22;49320;52.512;13.448;2023-02-28T04:51:20;3.60;64.20
63219;DHT22;49320;52.512;13.448;2023-02-28T04:53:47;3.60;64.20
63219;DHT22;49320;52.512;13.448;2023-02-28T04:56:16;3.60;64.30
63219;DHT22;49320;52.512;13.448;2023-02-28T04:58:44;3.50;64.30
63219;DHT22;49320;52.512;13.448;2023-02-28T05:03:49;3.50;64.50
63219;DHT22;49320;52.512;13.448;2023-02-28T05:06:16;3.50;64.40
63219;DHT22;49320;52.512;13.448;2023-02-28T05:08:44;3.50;64.50
63219;DHT22;49320;52.512;13.448;2023-02-28T05:11:21;3.50;64.50
63219;DHT22;49320;52.512;13.448;2023-02-28T05:13:51;3.50;64.60
63219;DHT22;49320;52.512;13.448;2023-02-28T05:16:19;3.10;64.30
63219;DHT22;49320;52.512;13.448;2023-02-28T05:18:46;3.40;64.00
63219;DHT22;49320;52.512;13.448;2023-02-28T05:23:53;3.50;64.80
63219;DHT22;49320;52.512;13.448;2023-02-28T05:26:21;3.50;64.70
63219;DHT22;49320;52.512;13.448;2023-02-28T05:28:48;3.40;64.60
63219;DHT22;49320;52.512;13.448;2023-02-28T05:31:15;3.40;64.60
63219;DHT22;49320;52.512;13.448;2023-02-28T05:33:42;3.40;64.60
63219;DHT22;49320;52.512;13.448;2023-02-28T05:36:09;3.40;64.70
63219;DHT22;49320;52.512;13.448;2023-02-28T05:38:35;3.40;64.70
63219;DHT22;49320;52.512;13.448;2023-02-28T05:41:06;3.40;64.80
63219;DHT22;49320;52.512;13.448;2023-02-28T05:43:37;3.40;64.80
63219;DHT22;49320;52.512;13.448;2023-02-28T05:46:09;3.40;64.80
63219;DHT22;49320;52.512;13.448;2023-02-28T05:48:38;3.40;64.50
63219;DHT22;49320;52.512;13.448;2023-02-28T05:51:08;3.40;64.90
63219;DHT22;49320;52.512;13.448;2023-02-28T05:53:35;3.40;64.80
63219;DHT22;49320;52.512;13.448;2023-02-28T05:56:03;3.40;65.00
63219;DHT22;49320;52.512;13.448;2023-02-28T05:58:30;3.40;65.00
63219;DHT22;49320;52.512;13.448;2023-02-28T06:00:58;3.40;65.00
63219;DHT22;49320;52.512;13.448;2023-02-28T06:03:26;3.40;65.70
63219;DHT22;49320;52.512;13.448;2023-02-28T06:05:54;3.40;65.10
63219;DHT22;49320;52.512;13.448;2023-02-28T06:08:20;3.40;65.10
63219;DHT22;49320;52.512;13.448;2023-02-28T06:10:47;3.40;65.10
63219;DHT22;49320;52.512;13.448;2023-02-28T06:13:14;3.40;65.20
63219;DHT22;49320;52.512;13.448;2023-02-28T06:15:41;3.40;64.60
63219;DHT22;49320;52.512;13.448;2023-02-28T06:18:08;3.40;65.30
63219;DHT22;49320;52.512;13.448;2023-02-28T06:20:35;3.50;65.40
63219;DHT22;49320;52.512;13.448;2023-02-28T06:23:02;3.50;65.50
63219;DHT22;49320;52.512;13.448;2023-02-28T06:25:29;3.40;65.30
63219;DHT22;49320;52.512;13.448;2023-02-28T06:27:56;3.50;65.40
63219;DHT22;49320;52.512;13.448;2023-02-28T06:30:23;3.50;65.40
63219;DHT22;49320;52.512;13.448;2023-02-28T06:32:53;3.60;65.40
63219;DHT22;49320;52.512;13.448;2023-02-28T06:35:21;3.60;65.60
63219;DHT22;49320;52.512;13.448;2023-02-28T06:37:48;3.60;65.50
63219;DHT22;49320;52.512;13.448;2023-02-28T06:40:15;3.60;65.60
63219;DHT22;49320;52.512;13.448;2023-02-28T06:45:11;3.70;64.90
63219;DHT22;49320;52.512;13.448;2023-02-28T06:47:39;3.70;65.30
63219;DHT22;49320;52.512;13.448;2023-02-28T06:50:11;3.70;65.50
63219;DHT22;49320;52.512;13.448;2023-02-28T06:52:39;3.80;65.50
63219;DHT22;49320;52.512;13.448;2023-02-28T06:55:07;3.80;65.40
63219;DHT22;49320;52.512;13.448;2023-02-28T06:57:36;3.80;65.40
63219;DHT22;49320;52.512;13.448;2023-02-28T07:00:12;3.80;65.40
63219;DHT22;49320;52.512;13.448;2023-02-28T07:02:39;3.90;65.40
63219;DHT22;49320;52.512;13.448;2023-02-28T07:05:06;3.90;65.30
63219;DHT22;49320;52.512;13.448;2023-02-28T07:07:33;4.00;65.20
63219;DHT22;49320;52.512;13.448;2023-02-28T07:12:30;4.10;64.30
63219;DHT22;49320;52.512;13.448;2023-02-28T07:14:56;4.10;64.70
63219;DHT22;49320;52.512;13.448;2023-02-28T07:17:23;4.10;64.30
63219;DHT22;49320;52.512;13.448;2023-02-28T07:19:50;4.20;64.00
63219;DHT22;49320;52.512;13.448;2023-02-28T07:22:17;4.30;64.00
63219;DHT22;49320;52.512;13.448;2023-02-28T07:24:44;4.40;63.90
63219;DHT22;49320;52.512;13.448;2023-02-28T07:27:10;4.40;63.60
63219;DHT22;49320;52.512;13.448;2023-02-28T07:29:37;4.50;63.50
63219;DHT22;49320;52.512;13.448;2023-02-28T07:32:04;4.60;63.30
63219;DHT22;49320;52.512;13.448;2023-02-28T07:34:31;4.60;62.90
63219;DHT22;49320;52.512;13.448;2023-02-28T07:36:58;4.70;62.70
63219;DHT22;49320;52.512;13.448;2023-02-28T07:39:25;4.80;62.40
63219;DHT22;49320;52.512;13.448;2023-02-28T07:41:52;4.90;62.20
63219;DHT22;49320;52.512;13.448;2023-02-28T07:44:19;4.90;61.80
63219;DHT22;49320;52.512;13.448;2023-02-28T07:46:45;5.10;60.50
63219;DHT22;49320;52.512;13.448;2023-02-28T07:49:12;5.10;61.40
63219;DHT22;49320;52.512;13.448;2023-02-28T07:51:39;5.20;61.30
63219;DHT22;49320;52.512;13.448;2023-02-28T07:54:06;5.20;61.00
63219;DHT22;49320;52.512;13.448;2023-02-28T07:56:33;5.40;59.80
63219;DHT22;49320;52.512;13.448;2023-02-28T07:59:00;5.30;60.60
63219;DHT22;49320;52.512;13.448;2023-02-28T08:01:28;5.40;60.00
63219;DHT22;49320;52.512;13.448;2023-02-28T08:03:55;5.50;59.80
63219;DHT22;49320;52.512;13.448;2023-02-28T08:06:24;5.60;59.60
63219;DHT22;49320;52.512;13.448;2023-02-28T08:08:53;5.50;59.20
63219;DHT22;49320;52.512;13.448;2023-02-28T08:11:20;5.70;59.00
63219;DHT22;49320;52.512;13.448;2023-02-28T08:13:47;5.80;58.80
63219;DHT22;49320;52.512;13.448;2023-02-28T08:16:14;5.80;58.50
63219;DHT22;49320;52.512;13.448;2023-02-28T08:18:44;5.90;58.50
63219;DHT22;49320;52.512;13.448;2023-02-28T08:21:11;5.70;58.10
63219;DHT22;49320;52.512;13.448;2023-02-28T08:23:38;6.00;58.20
63219;DHT22;49320;52.512;13.448;2023-02-28T08:26:05;6.10;57.90
63219;DHT22;49320;52.512;13.448;2023-02-28T08:28:33;6.10;57.80
63219;DHT22;49320;52.512;13.448;2023-02-28T08:31:01;6.20;57.80
63219;DHT22;49320;52.512;13.448;2023-02-28T08:33:34;6.20;57.60
63219;DHT22;49320;52.512;13.448;2023-02-28T08:36:01;6.30;57.40
63219;DHT22;49320;52.512;13.448;2023-02-28T08:38:28;6.30;57.20
63219;DHT22;49320;52.512;13.448;2023-02-28T08:41:00;6.40;57.40
63219;DHT22;49320;52.512;13.448;2023-02-28T08:43:29;6.40;57.00
63219;DHT22;49320;52.512;13.448;2023-02-28T08:45:56;6.50;57.20
63219;DHT22;49320;52.512;13.448;2023-02-28T08:48:28;6.50;55.90
63219;DHT22;49320;52.512;13.448;2023-02-28T08:51:10;6.60;56.50
63219;DHT22;49320;52.512;13.448;2023-02-28T08:53:40;6.60;56.20
63219;DHT22;49320;52.512;13.448;2023-02-28T08:56:09;6.70;56.60
63219;DHT22;49320;52.512;13.448;2023-02-28T09:01:10;6.70;55.50
63219;DHT22;49320;52.512;13.448;2023-02-28T09:03:42;8.50;56.60
63219;DHT22;49320;52.512;13.448;2023-02-28T09:06:10;6.80;56.00
63219;DHT22;49320;52.512;13.448;2023-02-28T09:08:38;6.80;55.50
63219;DHT22;49320;52.512;13.448;2023-02-28T09:11:05;6.80;55.00
63219;DHT22;49320;52.512;13.448;2023-02-28T09:13:32;6.90;55.00
63219;DHT22;49320;52.512;13.448;2023-02-28T09:16:01;6.90;55.10
63219;DHT22;49320;52.512;13.448;2023-02-28T09:18:30;6.90;54.70
63219;DHT22;49320;52.512;13.448;2023-02-28T09:20:57;6.90;54.40
63219;DHT22;49320;52.512;13.448;2023-02-28T09:23:24;6.80;54.40
63219;DHT22;49320;52.512;13.448;2023-02-28T09:25:53;7.00;54.60
63219;DHT22;49320;52.512;13.448;2023-02-28T09:28:21;7.00;54.50
63219;DHT22;49320;52.512;13.448;2023-02-28T09:30:51;7.00;54.10
63219;DHT22;49320;52.512;13.448;2023-02-28T09:33:20;7.10;54.20
63219;DHT22;49320;52.512;13.448;2023-02-28T09:35:48;7.10;54.00
63219;DHT22;49320;52.512;13.448;2023-02-28T09:38:16;7.10;54.20
63219;DHT22;49320;52.512;13.448;2023-02-28T09:40:58;7.00;54.10
63219;DHT22;49320;52.512;13.448;2023-02-28T09:43:35;7.10;53.40
63219;DHT22;49320;52.512;13.448;2023-02-28T09:46:31;7.20;53.30
63219;DHT22;49320;52.512;13.448;2023-02-28T09:49:06;7.20;52.40
63219;DHT22;49320;52.512;13.448;2023-02-28T09:51:58;7.20;53.50
63219;DHT22;49320;52.512;13.448;2023-02-28T09:54:30;7.20;53.40
63219;DHT22;49320;52.512;13.448;2023-02-28T09:57:07;7.30;53.90
63219;DHT22;49320;52.512;13.448;2023-02-28T09:59:54;7.30;53.70
63219;DHT22;49320;52.512;13.448;2023-02-28T10:02:49;7.30;52.20
63219;DHT22;49320;52.512;13.448;2023-02-28T10:05:41;7.30;52.70
63219;DHT22;49320;52.512;13.448;2023-02-28T10:11:19;7.40;52.80
63219;DHT22;49320;52.512;13.448;2023-02-28T10:16:40;7.40;51.90
63219;DHT22;49320;52.512;13.448;2023-02-28T10:19:20;7.40;52.70
63219;DHT22;49320;52.512;13.448;2023-02-28T10:22:14;7.20;51.60
63219;DHT22;49320;52.512;13.448;2023-02-28T10:24:47;7.40;52.40
63219;DHT22;49320;52.512;13.448;2023-02-28T10:27:21;7.40;52.60
63219;DHT22;49320;52.512;13.448;2023-02-28T10:29:57;7.40;52.10
63219;DHT22;49320;52.512;13.448;2023-02-28T10:32:33;5.30;50.50
63219;DHT22;49320;52.512;13.448;2023-02-28T10:35:23;7.50;52.50
63219;DHT22;49320;52.512;13.448;2023-02-28T10:37:58;7.50;51.90
63219;DHT22;49320;52.512;13.448;2023-02-28T10:40:34;7.60;51.60
63219;DHT22;49320;52.512;13.448;2023-02-28T10:43:04;7.60;52.10
63219;DHT22;49320;52.512;13.448;2023-02-28T10:48:43;7.60;51.20
63219;DHT22;49320;52.512;13.448;2023-02-28T10:51:34;7.70;52.60
63219;DHT22;49320;52.512;13.448;2023-02-28T10:54:15;7.70;52.20
63219;DHT22;49320;52.512;13.448;2023-02-28T10:56:44;7.80;52.20
63219;DHT22;49320;52.512;13.448;2023-02-28T11:01:43;7.80;52.40
63219;DHT22;49320;52.512;13.448;2023-02-28T11:07:00;7.80;51.40
63219;DHT22;49320;52.512;13.448;2023-02-28T11:09:34;7.80;51.10
63219;DHT22;49320;52.512;13.448;2023-02-28T11:12:39;7.80;51.40
63219;DHT22;49320;52.512;13.448;2023-02-28T11:21:24;7.90;50.40
63219;DHT22;49320;52.512;13.448;2023-02-28T11:24:28;7.80;51.30
63219;DHT22;49320;52.512;13.448;2023-02-28T11:26:58;7.90;51.10
63219;DHT22;49320;52.512;13.448;2023-02-28T11:29:30;7.90;51.70
63219;DHT22;49320;52.512;13.448;2023-02-28T11:32:22;7.90;51.50
63219;DHT22;49320;52.512;13.448;2023-02-28T11:35:13;7.90;51.50
63219;DHT22;49320;52.512;13.448;2023-02-28T11:37:43;7.90;51.10
63219;DHT22;49320;52.512;13.448;2023-02-28T11:40:17;8.00;51.70
63219;DHT22;49320;52.512;13.448;2023-02-28T11:49:27;7.90;51.20
63219;DHT22;49320;52.512;13.448;2023-02-28T11:52:36;8.00;51.20
63219;DHT22;49320;52.512;13.448;2023-02-28T11:55:27;8.00;49.50
63219;DHT22;49320;52.512;13.448;2023-02-28T11:58:17;8.00;50.90
63219;DHT22;49320;52.512;13.448;2023-02-28T12:01:15;8.00;50.20
63219;DHT22;49320;52.512;13.448;2023-02-28T12:07:03;8.00;50.50
63219;DHT22;49320;52.512;13.448;2023-02-28T12:10:30;8.00;50.90
63219;DHT22;49320;52.512;13.448;2023-02-28T12:13:21;8.00;50.50
63219;DHT22;49320;52.512;13.448;2023-02-28T12:19:04;8.00;50.60
63219;DHT22;49320;52.512;13.448;2023-02-28T12:21:59;8.00;51.00
63219;DHT22;49320;52.512;13.448;2023-02-28T12:27:46;8.10;50.70
63219;DHT22;49320;52.512;13.448;2023-02-28T12:30:36;8.10;51.00
63219;DHT22;49320;52.512;13.448;2023-02-28T12:33:15;8.20;50.10
63219;DHT22;49320;52.512;13.448;2023-02-28T12:35:51;8.20;50.80
63219;DHT22;49320;52.512;13.448;2023-02-28T12:38:28;8.20;50.70
63219;DHT22;49320;52.512;13.448;2023-02-28T12:41:03;8.30;49.50
63219;DHT22;49320;52.512;13.448;2023-02-28T12:43:42;8.30;50.80
63219;DHT22;49320;52.512;13.448;2023-02-28T12:46:46;8.30;50.60
63219;DHT22;49320;52.512;13.448;2023-02-28T12:52:08;8.40;50.00
63219;DHT22;49320;52.512;13.448;2023-02-28T12:54:47;8.40;50.50
63219;DHT22;49320;52.512;13.448;2023-02-28T12:57:25;8.40;50.60
63219;DHT22;49320;52.512;13.448;2023-02-28T13:00:14;8.50;50.80
63219;DHT22;49320;52.512;13.448;2023-02-28T13:03:10;8.50;49.60
63219;DHT22;49320;52.512;13.448;2023-02-28T13:09:05;8.60;50.00
63219;DHT22;49320;52.512;13.448;2023-02-28T13:20:04;8.50;49.60
63219;DHT22;49320;52.512;13.448;2023-02-28T13:22:42;8.60;50.10
63219;DHT22;49320;52.512;13.448;2023-02-28T13:28:13;8.60;49.60
63219;DHT22;49320;52.512;13.448;2023-02-28T13:31:03;8.60;49.70
63219;DHT22;49320;52.512;13.448;2023-02-28T13:33:36;8.60;49.80
63219;DHT22;49320;52.512;13.448;2023-02-28T13:36:28;8.60;49.70
63219;DHT22;49320;52.512;13.448;2023-02-28T13:39:03;8.80;49.80
63219;DHT22;49320;52.512;13.448;2023-02-28T13:42:24;8.60;49.90
63219;DHT22;49320;52.512;13.448;2023-02-28T13:55:46;8.80;48.80
63219;DHT22;49320;52.512;13.448;2023-02-28T14:06:48;8.90;49.50
63219;DHT22;49320;52.512;13.448;2023-02-28T14:09:29;8.90;49.40
63219;DHT22;49320;52.512;13.448;2023-02-28T14:15:45;8.90;48.90
63219;DHT22;49320;52.512;13.448;2023-02-28T14:18:19;8.90;48.20
63219;DHT22;49320;52.512;13.448;2023-02-28T14:20:56;8.90;49.20
63219;DHT22;49320;52.512;13.448;2023-02-28T14:24:01;8.90;49.10
63219;DHT22;49320;52.512;13.448;2023-02-28T14:37:56;8.90;48.70
63219;DHT22;49320;52.512;13.448;2023-02-28T14:40:29;8.90;49.50
63219;DHT22;49320;52.512;13.448;2023-02-28T14:43:01;8.90;49.00
63219;DHT22;49320;52.512;13.448;2023-02-28T14:45:34;8.90;48.80
63219;DHT22;49320;52.512;13.448;2023-02-28T14:48:05;9.00;48.60
63219;DHT22;49320;52.512;13.448;2023-02-28T14:50:37;8.90;48.70
63219;DHT22;49320;52.512;13.448;2023-02-28T14:53:10;8.90;48.90
63219;DHT22;49320;52.512;13.448;2023-02-28T14:55:46;8.90;49.00
63219;DHT22;49320;52.512;13.448;2023-02-28T14:58:26;8.90;48.40
63219;DHT22;49320;52.512;13.448;2023-02-28T15:00:56;8.90;48.30
63219;DHT22;49320;52.512;13.448;2023-02-28T15:06:00;8.90;48.40
63219;DHT22;49320;52.512;13.448;2023-02-28T15:08:29;8.80;48.40
63219;DHT22;49320;52.512;13.448;2023-02-28T15:11:18;8.80;48.20
63219;DHT22;49320;52.512;13.448;2023-02-28T15:13:54;8.80;47.90
63219;DHT22;49320;52.512;13.448;2023-02-28T15:16:29;8.80;48.40
63219;DHT22;49320;52.512;13.448;2023-02-28T15:21:49;8.70;48.20
63219;DHT22;49320;52.512;13.448;2023-02-28T15:24:30;8.80;48.70
63219;DHT22;49320;52.512;13.448;2023-02-28T15:27:05;8.80;48.90
63219;DHT22;49320;52.512;13.448;2023-02-28T15:29:44;8.80;48.20
63219;DHT22;49320;52.512;13.448;2023-02-28T15:32:36;8.80;48.70
63219;DHT22;49320;52.512;13.448;2023-02-28T15:37:55;8.90;48.70
63219;DHT22;49320;52.512;13.448;2023-02-28T15:40:30;8.90;48.80
63219;DHT22;49320;52.512;13.448;2023-02-28T15:43:15;8.90;48.80
63219;DHT22;49320;52.512;13.448;2023-02-28T15:45:50;9.00;48.80
63219;DHT22;49320;52.512;13.448;2023-02-28T15:48:31;8.90;48.10
63219;DHT22;49320;52.512;13.448;2023-02-28T15:51:12;8.90;48.70
63219;DHT22;49320;52.512;13.448;2023-02-28T15:53:48;8.90;48.90
63219;DHT22;49320;52.512;13.448;2023-02-28T15:59:04;8.80;48.70
63219;DHT22;49320;52.512;13.448;2023-02-28T16:01:35;8.80;49.00
63219;DHT22;49320;52.512;13.448;2023-02-28T16:04:06;8.80;49.10
63219;DHT22;49320;52.512;13.448;2023-02-28T16:07:06;8.80;49.20
63219;DHT22;49320;52.512;13.448;2023-02-28T16:09:32;8.80;49.20
63219;DHT22;49320;52.512;13.448;2023-02-28T16:12:02;8.70;49.10
63219;DHT22;49320;52.512;13.448;2023-02-28T16:14:30;8.70;49.10
63219;DHT22;49320;52.512;13.448;2023-02-28T16:17:16;8.70;49.20
63219;DHT22;49320;52.512;13.448;2023-02-28T16:19:47;8.70;48.80
63219;DHT22;49320;52.512;13.448;2023-02-28T16:24:42;8.70;48.70
63219;DHT22;49320;52.512;13.448;2023-02-28T16:27:31;8.60;49.30
63219;DHT22;49320;52.512;13.448;2023-02-28T16:30:03;8.60;49.20
63219;DHT22;49320;52.512;13.448;2023-02-28T16:32:34;8.60;49.40
63219;DHT22;49320;52.512;13.448;2023-02-28T16:35:03;8.50;49.30
63219;DHT22;49320;52.512;13.448;2023-02-28T16:37:30;8.50;49.30
63219;DHT22;49320;52.512;13.448;2023-02-28T16:39:57;8.50;49.40
63219;DHT22;49320;52.512;13.448;2023-02-28T16:42:27;8.40;48.90
63219;DHT22;49320;52.512;13.448;2023-02-28T16:44:55;8.40;49.40
63219;DHT22;49320;52.512;13.448;2023-02-28T16:47:22;8.40;49.50
63219;DHT22;49320;52.512;13.448;2023-02-28T16:49:49;8.40;49.50
63219;DHT22;49320;52.512;13.448;2023-02-28T16:52:15;8.30;49.50
63219;DHT22;49320;52.512;13.448;2023-02-28T16:54:42;8.30;49.50
63219;DHT22;49320;52.512;13.448;2023-02-28T16:57:27;8.30;49.60
63219;DHT22;49320;52.512;13.448;2023-02-28T16:59:54;8.30;48.70
63219;DHT22;49320;52.512;13.448;2023-02-28T17:02:20;8.20;49.70
63219;DHT22;49320;52.512;13.448;2023-02-28T17:07:16;8.70;49.50
63219;DHT22;49320;52.512;13.448;2023-02-28T17:09:44;8.10;49.80
63219;DHT22;49320;52.512;13.448;2023-02-28T17:12:12;8.10;49.80
63219;DHT22;49320;52.512;13.448;2023-02-28T17:14:39;8.10;49.90
63219;DHT22;49320;52.512;13.448;2023-02-28T17:17:06;8.00;49.90
63219;DHT22;49320;52.512;13.448;2023-02-28T17:19:34;8.00;50.00
63219;DHT22;49320;52.512;13.448;2023-02-28T17:22:02;8.00;50.00
63219;DHT22;49320;52.512;13.448;2023-02-28T17:24:29;8.00;50.10
63219;DHT22;49320;52.512;13.448;2023-02-28T17:26:57;7.90;50.10
63219;DHT22;49320;52.512;13.448;2023-02-28T17:29:24;7.90;49.60
63219;DHT22;49320;52.512;13.448;2023-02-28T17:31:52;7.90;50.20
63219;DHT22;49320;52.512;13.448;2023-02-28T17:34:19;7.90;50.30
63219;DHT22;49320;52.512;13.448;2023-02-28T17:36:47;7.90;50.40
63219;DHT22;49320;52.512;13.448;2023-02-28T17:39:17;7.80;50.30
63219;DHT22;49320;52.512;13.448;2023-02-28T17:41:55;7.80;50.30
63219;DHT22;49320;52.512;13.448;2023-02-28T17:46:51;7.70;49.50
63219;DHT22;49320;52.512;13.448;2023-02-28T17:49:20;7.70;50.40
63219;DHT22;49320;52.512;13.448;2023-02-28T17:51:47;7.70;50.40
63219;DHT22;49320;52.512;13.448;2023-02-28T17:54:14;7.60;50.40
63219;DHT22;49320;52.512;13.448;2023-02-28T17:56:44;7.60;50.50
63219;DHT22;49320;52.512;13.448;2023-02-28T17:59:12;7.60;50.60
63219;DHT22;49320;52.512;13.448;2023-02-28T18:01:39;7.60;49.90
63219;DHT22;49320;52.512;13.448;2023-02-28T18:04:06;7.50;50.20
63219;DHT22;49320;52.512;13.448;2023-02-28T18:06:36;7.50;50.70
63219;DHT22;49320;52.512;13.448;2023-02-28T18:09:20;7.50;50.80
63219;DHT22;49320;52.512;13.448;2023-02-28T18:11:53;7.50;50.90
63219;DHT22;49320;52.512;13.448;2023-02-28T18:14:22;7.50;51.00
63219;DHT22;49320;52.512;13.448;2023-02-28T18:16:53;7.40;51.00
63219;DHT22;49320;52.512;13.448;2023-02-28T18:19:21;7.40;51.10
63219;DHT22;49320;52.512;13.448;2023-02-28T18:21:50;7.40;51.10
63219;DHT22;49320;52.512;13.448;2023-02-28T18:24:20;7.30;51.10
63219;DHT22;49320;52.512;13.448;2023-02-28T18:26:48;7.30;51.10
63219;DHT22;49320;52.512;13.448;2023-02-28T18:29:20;7.30;51.30
63219;DHT22;49320;52.512;13.448;2023-02-28T18:31:49;7.20;51.30
63219;DHT22;49320;52.512;13.448;2023-02-28T18:34:17;7.20;51.40
63219;DHT22;49320;52.512;13.448;2023-02-28T18:36:44;7.20;51.40
63219;DHT22;49320;52.512;13.448;2023-02-28T18:39:13;7.10;51.40
63219;DHT22;49320;52.512;13.448;2023-02-28T18:41:40;7.10;51.50
63219;DHT22;49320;52.512;13.448;2023-02-28T18:44:08;6.90;51.00
63219;DHT22;49320;52.512;13.448;2023-02-28T18:46:44;7.00;51.00
63219;DHT22;49320;52.512;13.448;2023-02-28T18:49:11;7.00;51.60
63219;DHT22;49320;52.512;13.448;2023-02-28T18:54:11;7.00;51.20
63219;DHT22;49320;52.512;13.448;2023-02-28T18:56:38;6.90;51.80
63219;DHT22;49320;52.512;13.448;2023-02-28T18:59:05;6.90;51.30
63219;DHT22;49320;52.512;13.448;2023-02-28T19:01:32;6.90;51.80